createdAt,value
2018-09-26T00:01:05.514Z,69.20
2018-09-26T00:04:14.958Z,68.22
2018-09-26T00:07:19.431Z,69.25
2018-09-26T00:10:23.958Z,69.29
2018-09-26T00:13:29.240Z,69.09
2018-09-26T00:16:33.670Z,68.92
2018-09-26T00:19:38.123Z,68.51
2018-09-26T00:22:42.574Z,69.23
2018-09-26T00:25:47.045Z,69.48
2018-09-26T00:28:51.482Z,68.63
2018-09-26T00:31:55.911Z,69.65
2018-09-26T00:35:00.350Z,69.07
2018-09-26T00:38:04.810Z,69.75
2018-09-26T00:41:09.361Z,69.65
2018-09-26T00:44:13.829Z,69.97
2018-09-26T00:47:18.267Z,69.71
2018-09-26T00:50:22.735Z,69.23
2018-09-26T00:53:27.198Z,70.11
2018-09-26T00:56:31.641Z,69.80
2018-09-26T00:59:36.100Z,69.77
2018-09-26T01:02:40.518Z,70.49
2018-09-26T01:05:44.954Z,69.96
2018-09-26T01:08:51.450Z,69.98
2018-09-26T01:11:55.874Z,70.98
2018-09-26T01:15:00.341Z,71.45
2018-09-26T01:18:04.817Z,71.23
2018-09-26T01:21:09.342Z,70.88
2018-09-26T01:24:13.848Z,71.18
2018-09-26T01:27:18.269Z,70.85
2018-09-26T01:30:22.719Z,70.41
2018-09-26T01:33:27.142Z,70.29
2018-09-26T01:36:31.573Z,70.01
2018-09-26T01:39:36.029Z,70.90
2018-09-26T01:42:40.492Z,71.47
2018-09-26T01:45:44.941Z,72.08
2018-09-26T01:48:49.363Z,71.79
2018-09-26T01:51:53.815Z,71.84
2018-09-26T01:54:58.289Z,72.09
2018-09-26T01:58:02.707Z,72.42
2018-09-26T02:01:07.228Z,71.42
2018-09-26T02:04:11.652Z,71.62
2018-09-26T02:07:16.084Z,71.92
2018-09-26T02:10:20.519Z,71.97
2018-09-26T02:13:24.930Z,71.98
2018-09-26T02:16:29.362Z,72.54
2018-09-26T02:19:33.771Z,72.42
2018-09-26T02:22:38.201Z,72.17
2018-09-26T02:25:42.677Z,71.55
2018-09-26T02:28:47.075Z,71.82
2018-09-26T02:31:51.509Z,72.29
2018-09-26T02:34:55.926Z,71.63
2018-09-26T02:38:00.426Z,72.24
2018-09-26T02:41:04.874Z,72.81
2018-09-26T02:44:09.373Z,72.29
2018-09-26T02:47:13.899Z,72.05
2018-09-26T02:50:18.425Z,72.56
2018-09-26T02:53:22.951Z,72.61
2018-09-26T02:56:27.402Z,71.54
2018-09-26T02:59:31.830Z,72.39
2018-09-26T03:02:36.254Z,73.60
2018-09-26T03:05:40.679Z,73.27
2018-09-26T03:08:45.119Z,71.97
2018-09-26T03:11:49.579Z,73.02
2018-09-26T03:14:53.994Z,73.10
2018-09-26T03:17:58.423Z,72.56
2018-09-26T03:21:02.968Z,73.50
2018-09-26T03:24:07.462Z,73.47
2018-09-26T03:27:11.916Z,72.57
2018-09-26T03:30:16.355Z,72.82
2018-09-26T03:33:20.778Z,74.44
2018-09-26T03:36:25.188Z,73.86
2018-09-26T03:39:29.625Z,73.39
2018-09-26T03:42:34.091Z,73.66
2018-09-26T03:45:38.506Z,73.39
2018-09-26T03:48:42.984Z,73.30
2018-09-26T03:51:47.403Z,73.42
2018-09-26T03:54:51.826Z,74.20
2018-09-26T03:57:56.243Z,74.73
2018-09-26T04:01:00.667Z,73.03
2018-09-26T04:04:05.119Z,73.61
2018-09-26T04:07:09.581Z,73.46
2018-09-26T04:10:14.121Z,72.82
2018-09-26T04:13:18.575Z,73.77
2018-09-26T04:16:22.987Z,73.46
2018-09-26T04:19:27.423Z,73.20
2018-09-26T04:22:31.949Z,72.92
2018-09-26T04:25:36.390Z,72.44
2018-09-26T04:28:40.819Z,73.64
2018-09-26T04:31:45.235Z,73.45
2018-09-26T04:34:49.673Z,73.50
2018-09-26T04:37:54.092Z,72.87
2018-09-26T04:40:58.551Z,73.33
2018-09-26T04:44:02.967Z,73.48
2018-09-26T04:47:07.522Z,73.15
2018-09-26T04:50:11.955Z,72.95
2018-09-26T04:53:16.373Z,73.54
2018-09-26T04:56:20.815Z,73.41
2018-09-26T04:59:25.249Z,73.96
2018-09-26T05:02:29.684Z,73.52
2018-09-26T05:05:34.158Z,74.33
2018-09-26T05:08:38.594Z,73.71
2018-09-26T05:11:43.031Z,73.77
2018-09-26T05:14:47.620Z,74.23
2018-09-26T05:17:52.066Z,73.90
2018-09-26T05:20:56.612Z,74.21
2018-09-26T05:24:01.136Z,74.06
2018-09-26T05:27:05.572Z,73.60
2018-09-26T05:30:10.079Z,74.72
2018-09-26T05:33:14.742Z,74.41
2018-09-26T05:36:19.247Z,74.29
2018-09-26T05:39:23.716Z,74.29
2018-09-26T05:42:28.161Z,74.11
2018-09-26T05:45:32.589Z,74.55
2018-09-26T05:48:37.302Z,75.29
2018-09-26T05:51:41.778Z,76.20
2018-09-26T05:54:46.214Z,76.78
2018-09-26T05:57:50.633Z,76.25
2018-09-26T06:00:55.181Z,75.46
2018-09-26T06:03:59.586Z,76.37
2018-09-26T06:07:04.051Z,75.79
2018-09-26T06:10:08.515Z,74.80
2018-09-26T06:13:12.963Z,69.02
2018-09-26T06:16:17.425Z,64.52
2018-09-26T06:19:21.868Z,60.12
2018-09-26T06:22:26.563Z,57.49
2018-09-26T06:25:30.991Z,52.85
2018-09-26T06:28:35.462Z,51.73
2018-09-26T06:31:39.983Z,50.23
2018-09-26T06:34:44.419Z,48.47
2018-09-26T06:37:48.916Z,46.98
2018-09-26T06:40:53.386Z,46.78
2018-09-26T06:43:57.835Z,47.19
2018-09-26T06:47:02.291Z,47.92
2018-09-26T06:50:06.767Z,46.77
2018-09-26T06:53:11.225Z,46.85
2018-09-26T06:56:15.674Z,47.47
2018-09-26T06:59:20.115Z,46.81
2018-09-26T07:02:24.557Z,44.27
2018-09-26T07:05:29.003Z,42.72
2018-09-26T07:08:33.438Z,42.23
2018-09-26T07:11:37.883Z,44.45
2018-09-26T07:14:42.353Z,47.28
2018-09-26T07:17:46.792Z,48.61
2018-09-26T07:20:51.277Z,50.04
2018-09-26T07:23:55.832Z,53.30
2018-09-26T07:27:00.329Z,53.93
2018-09-26T07:30:04.783Z,54.77
2018-09-26T07:33:09.217Z,53.44
2018-09-26T07:36:13.674Z,52.45
2018-09-26T07:39:18.106Z,55.03
2018-09-26T07:42:22.654Z,55.49
2018-09-26T07:45:27.182Z,54.50
2018-09-26T07:48:31.634Z,55.84
2018-09-26T07:51:36.103Z,55.43
2018-09-26T07:54:40.530Z,55.91
2018-09-26T07:57:44.975Z,55.66
2018-09-26T08:00:49.435Z,56.99
2018-09-26T08:03:53.930Z,56.18
2018-09-26T08:06:58.522Z,55.83
2018-09-26T08:10:03.134Z,55.38
2018-09-26T08:13:07.607Z,56.01
2018-09-26T08:16:12.164Z,54.93
2018-09-26T08:19:16.636Z,54.28
2018-09-26T08:22:21.076Z,54.25
2018-09-26T08:25:25.499Z,54.35
2018-09-26T08:28:29.966Z,52.49
2018-09-26T08:31:34.426Z,53.69
2018-09-26T08:34:38.891Z,51.73
2018-09-26T08:37:43.334Z,50.05
2018-09-26T08:40:47.773Z,49.05
2018-09-26T08:43:52.299Z,48.90
2018-09-26T08:46:56.726Z,48.20
2018-09-26T08:50:01.155Z,46.56
2018-09-26T08:53:05.611Z,48.46
2018-09-26T08:56:10.054Z,45.70
2018-09-26T08:59:14.519Z,47.06
2018-09-26T09:02:18.967Z,46.59
2018-09-26T09:05:23.399Z,47.64
2018-09-26T09:08:27.846Z,49.67
2018-09-26T09:11:32.316Z,48.04
2018-09-26T09:14:36.888Z,44.31
2018-09-26T09:17:41.205Z,44.51
2018-09-26T09:20:45.692Z,43.81
2018-09-26T09:23:50.141Z,42.55
2018-09-26T09:26:54.586Z,42.12
2018-09-26T09:29:59.026Z,40.23
2018-09-26T09:33:03.463Z,42.23
2018-09-26T09:36:07.942Z,39.43
2018-09-26T09:39:12.389Z,39.09
2018-09-26T09:42:16.823Z,39.23
2018-09-26T09:45:21.758Z,39.07
2018-09-26T09:48:26.193Z,38.33
2018-09-26T09:51:30.632Z,37.00
2018-09-26T09:54:35.143Z,37.86
2018-09-26T09:57:39.548Z,36.99
2018-09-26T10:00:49.288Z,37.45
2018-09-26T10:03:53.770Z,36.17
2018-09-26T10:06:58.190Z,37.90
2018-09-26T10:10:02.630Z,35.66
2018-09-26T10:13:07.455Z,35.60
2018-09-26T10:16:11.982Z,34.92
2018-09-26T10:19:16.480Z,35.79
2018-09-26T10:22:20.913Z,36.50
2018-09-26T10:25:25.550Z,34.47
2018-09-26T10:28:29.975Z,34.54
2018-09-26T10:31:34.422Z,34.26
2018-09-26T10:34:38.871Z,33.55
2018-09-26T10:37:43.298Z,34.61
2018-09-26T10:40:47.789Z,33.27
2018-09-26T10:43:52.238Z,34.15
2018-09-26T10:46:56.683Z,34.13
2018-09-26T10:50:01.131Z,33.64
2018-09-26T10:53:05.635Z,33.31
2018-09-26T10:56:10.177Z,33.85
2018-09-26T10:59:14.530Z,31.83
2018-09-26T11:02:19.041Z,33.67
2018-09-26T11:05:23.516Z,33.80
2018-09-26T11:08:27.927Z,31.90
2018-09-26T11:11:32.370Z,32.48
2018-09-26T11:14:36.791Z,33.72
2018-09-26T11:17:41.227Z,34.54
2018-09-26T11:20:45.688Z,31.18
2018-09-26T11:23:50.131Z,32.75
2018-09-26T11:26:54.574Z,32.47
2018-09-26T11:29:59.019Z,32.65
2018-09-26T11:33:03.464Z,32.73
2018-09-26T11:36:08.110Z,31.54
2018-09-26T11:39:12.734Z,31.62
2018-09-26T11:42:17.197Z,31.53
2018-09-26T11:45:21.787Z,31.36
2018-09-26T11:48:26.230Z,33.10
2018-09-26T11:51:30.674Z,32.62
2018-09-26T11:54:35.098Z,32.08
2018-09-26T11:57:39.527Z,31.70
2018-09-26T12:00:43.954Z,31.47
2018-09-26T12:03:48.398Z,31.40
2018-09-26T12:06:52.900Z,31.05
2018-09-26T12:09:57.474Z,31.11
2018-09-26T12:13:01.975Z,32.20
2018-09-26T12:16:06.476Z,32.80
2018-09-26T12:19:10.878Z,31.04
2018-09-26T12:22:15.451Z,30.40
2018-09-26T12:25:19.795Z,32.69
2018-09-26T12:28:24.336Z,31.44
2018-09-26T12:31:28.753Z,28.72
2018-09-26T12:34:33.226Z,30.84
2018-09-26T12:37:37.824Z,30.81
2018-09-26T12:40:42.276Z,30.81
2018-09-26T12:43:46.705Z,29.39
2018-09-26T12:46:51.147Z,30.01
2018-09-26T12:49:55.650Z,30.10
2018-09-26T12:53:00.088Z,31.16
2018-09-26T12:56:04.511Z,29.84
2018-09-26T12:59:08.975Z,30.26
2018-09-26T13:02:13.488Z,30.15
2018-09-26T13:05:17.867Z,30.25
2018-09-26T13:08:22.392Z,29.20
2018-09-26T13:11:26.759Z,29.32
2018-09-26T13:14:31.210Z,28.77
2018-09-26T13:17:35.654Z,28.72
2018-09-26T13:20:40.083Z,30.37
2018-09-26T13:23:44.527Z,28.77
2018-09-26T13:26:48.938Z,29.70
2018-09-26T13:29:53.376Z,29.20
2018-09-26T13:32:57.822Z,28.91
2018-09-26T13:36:02.243Z,29.04
2018-09-26T13:39:08.565Z,29.12
2018-09-26T13:42:13.061Z,27.75
2018-09-26T13:45:17.431Z,25.97
2018-09-26T13:48:21.974Z,26.25
2018-09-26T13:51:26.367Z,25.48
2018-09-26T13:54:30.926Z,26.17
2018-09-26T13:57:35.323Z,27.81
2018-09-26T14:00:39.758Z,28.42
2018-09-26T14:03:44.207Z,26.76
2018-09-26T14:06:48.658Z,28.38
2018-09-26T14:09:53.099Z,28.13
2018-09-26T14:12:57.542Z,27.54
2018-09-26T14:16:01.965Z,28.12
2018-09-26T14:19:06.482Z,29.02
2018-09-26T14:22:11.021Z,31.21
2018-09-26T14:25:15.751Z,29.89
2018-09-26T14:28:20.399Z,30.09
2018-09-26T14:31:24.961Z,30.83
2018-09-26T14:34:29.532Z,29.30
2018-09-26T14:37:34.058Z,31.69
2018-09-26T14:40:38.634Z,31.76
2018-09-26T14:43:43.160Z,32.27
2018-09-26T14:46:47.678Z,31.70
2018-09-26T14:49:52.211Z,31.96
2018-09-26T14:52:56.800Z,31.87
2018-09-26T14:56:01.362Z,32.32
2018-09-26T14:59:06.224Z,32.10
2018-09-26T15:02:10.750Z,32.39
2018-09-26T15:05:15.378Z,33.69
2018-09-26T15:08:19.919Z,35.17
2018-09-26T15:11:24.461Z,33.47
2018-09-26T15:14:29.611Z,35.08
2018-09-26T15:17:34.178Z,33.10
2018-09-26T15:20:38.807Z,35.36
2018-09-26T15:23:43.350Z,36.50
2018-09-26T15:26:47.882Z,35.35
2018-09-26T15:29:52.438Z,35.44
2018-09-26T15:32:56.946Z,35.89
2018-09-26T15:36:01.479Z,34.81
2018-09-26T15:39:09.782Z,35.33
2018-09-26T15:42:14.433Z,35.40
2018-09-26T15:45:18.953Z,36.05
2018-09-26T15:48:23.567Z,36.53
2018-09-26T15:51:28.106Z,37.78
2018-09-26T15:54:32.687Z,39.56
2018-09-26T15:57:37.328Z,38.88
2018-09-26T16:00:41.904Z,40.86
2018-09-26T16:04:08.587Z,42.94
2018-09-26T16:07:13.011Z,43.50
2018-09-26T16:10:17.564Z,44.45
2018-09-26T16:13:21.927Z,44.84
2018-09-26T16:16:26.375Z,46.41
2018-09-26T16:19:30.835Z,46.97
2018-09-26T16:22:35.277Z,45.88
2018-09-26T16:25:39.852Z,46.45
2018-09-26T16:28:44.257Z,46.30
2018-09-26T16:31:48.817Z,47.16
2018-09-26T16:34:53.149Z,48.11
2018-09-26T16:37:57.592Z,48.67
2018-09-26T16:41:02.057Z,48.86
2018-09-26T16:44:06.732Z,49.67
2018-09-26T16:47:11.118Z,50.20
2018-09-26T16:50:15.642Z,51.24
2018-09-26T16:53:20.434Z,50.70
2018-09-26T16:56:24.965Z,51.32
2018-09-26T16:59:29.330Z,51.29
2018-09-26T17:02:33.775Z,51.84
2018-09-26T17:05:38.402Z,52.75
2018-09-26T17:08:42.850Z,52.53
2018-09-26T17:11:47.303Z,53.57
2018-09-26T17:14:51.722Z,53.85
2018-09-26T17:17:56.159Z,55.13
2018-09-26T17:21:01.183Z,54.94
2018-09-26T17:24:05.622Z,54.61
2018-09-26T17:27:10.089Z,54.90
2018-09-26T17:30:14.796Z,55.33
2018-09-26T17:33:20.152Z,55.50
2018-09-26T17:36:24.931Z,55.59
2018-09-26T17:39:36.227Z,57.02
2018-09-26T17:42:40.698Z,57.31
2018-09-26T17:45:45.123Z,57.28
2018-09-26T17:48:49.563Z,58.11
2018-09-26T17:51:54.023Z,57.04
2018-09-26T17:54:58.434Z,58.37
2018-09-26T17:58:02.874Z,58.32
2018-09-26T18:01:07.370Z,59.05
2018-09-26T18:04:12.088Z,59.97
2018-09-26T18:07:16.581Z,58.91
2018-09-26T18:10:21.007Z,59.21
2018-09-26T18:13:25.464Z,60.06
2018-09-26T18:16:29.965Z,60.28
2018-09-26T18:19:34.858Z,60.23
2018-09-26T18:22:39.322Z,60.50
2018-09-26T18:25:43.959Z,61.52
2018-09-26T18:28:48.478Z,60.92
2018-09-26T18:31:52.954Z,60.51
2018-09-26T18:34:57.379Z,60.03
2018-09-26T18:38:01.824Z,60.90
2018-09-26T18:41:06.284Z,61.66
2018-09-26T18:44:10.808Z,61.39
2018-09-26T18:47:15.370Z,61.81
2018-09-26T18:50:19.806Z,61.94
2018-09-26T18:53:24.319Z,61.85
2018-09-26T18:56:28.710Z,61.91
2018-09-26T18:59:33.186Z,62.62
2018-09-26T19:02:37.625Z,62.63
2018-09-26T19:05:42.062Z,62.38
2018-09-26T19:08:47.181Z,62.51
2018-09-26T19:11:51.586Z,62.72
2018-09-26T19:14:56.214Z,63.69
2018-09-26T19:18:00.735Z,64.10
2018-09-26T19:21:05.278Z,63.96
2018-09-26T19:24:09.701Z,64.20
2018-09-26T19:27:14.165Z,64.44
2018-09-26T19:30:18.705Z,65.22
2018-09-26T19:33:23.142Z,64.99
2018-09-26T19:36:27.592Z,65.00
2018-09-26T19:39:32.059Z,66.29
2018-09-26T19:42:36.502Z,65.50
2018-09-26T19:45:41.124Z,65.83
2018-09-26T19:48:45.575Z,65.74
2018-09-26T19:51:50.015Z,66.22
2018-09-26T19:54:54.459Z,66.28
2018-09-26T19:57:58.874Z,65.98
2018-09-26T20:01:03.373Z,65.30
2018-09-26T20:04:07.932Z,65.80
2018-09-26T20:07:12.366Z,66.17
2018-09-26T20:10:16.876Z,66.50
2018-09-26T20:13:21.272Z,67.46
2018-09-26T20:16:25.743Z,67.18
2018-09-26T20:19:30.182Z,67.40
2018-09-26T20:22:34.609Z,66.84
2018-09-26T20:25:39.186Z,67.64
2018-09-26T20:28:43.622Z,67.59
2018-09-26T20:31:48.083Z,67.79
2018-09-26T20:34:52.567Z,67.90
2018-09-26T20:37:56.987Z,67.89
2018-09-26T20:41:01.494Z,67.39
2018-09-26T20:44:06.064Z,67.28
2018-09-26T20:47:10.507Z,68.31
2018-09-26T20:50:14.962Z,67.70
2018-09-26T20:53:19.394Z,68.41
2018-09-26T20:56:23.850Z,68.37
2018-09-26T20:59:28.267Z,68.80
2018-09-26T21:02:32.690Z,68.84
2018-09-26T21:05:37.111Z,68.36
2018-09-26T21:08:41.533Z,68.57
2018-09-26T21:11:46.070Z,69.11
2018-09-26T21:14:50.514Z,69.03
2018-09-26T21:17:55.045Z,68.84
2018-09-26T21:20:59.448Z,68.54
2018-09-26T21:24:03.935Z,68.70
2018-09-26T21:27:08.377Z,69.31
2018-09-26T21:30:12.790Z,69.12
2018-09-26T21:33:17.239Z,69.23
2018-09-26T21:36:21.799Z,69.96
2018-09-26T21:39:26.226Z,69.25
2018-09-26T21:42:30.855Z,69.83
2018-09-26T21:45:35.279Z,69.28
2018-09-26T21:48:39.719Z,70.36
2018-09-26T21:51:44.150Z,69.91
2018-09-26T21:54:48.681Z,69.95
2018-09-26T21:57:53.128Z,70.25
2018-09-26T22:01:04.548Z,69.98
2018-09-26T22:04:09.085Z,70.13
2018-09-26T22:07:13.612Z,70.38
2018-09-26T22:10:18.047Z,70.42
2018-09-26T22:13:22.978Z,70.20
2018-09-26T22:16:27.463Z,70.27
2018-09-26T22:19:31.885Z,70.42
2018-09-26T22:22:36.683Z,70.54
2018-09-26T22:25:41.094Z,70.71
2018-09-26T22:28:45.522Z,70.33
2018-09-26T22:31:49.959Z,71.48
2018-09-26T22:34:54.376Z,70.80
2018-09-26T22:37:58.821Z,70.96
2018-09-26T22:41:03.350Z,70.93
2018-09-26T22:44:08.083Z,71.15
2018-09-26T22:47:12.515Z,71.51
2018-09-26T22:50:17.008Z,70.83
2018-09-26T22:53:21.450Z,71.27
2018-09-26T22:56:25.850Z,70.77
2018-09-26T22:59:30.276Z,70.93
2018-09-26T23:02:34.690Z,71.30
2018-09-26T23:05:39.102Z,71.63
2018-09-26T23:08:43.518Z,71.07
2018-09-26T23:11:47.926Z,72.18
2018-09-26T23:14:52.350Z,72.15
2018-09-26T23:17:56.793Z,71.36
2018-09-26T23:21:01.198Z,71.50
2018-09-26T23:24:05.634Z,71.97
2018-09-26T23:27:10.093Z,71.14
2018-09-26T23:30:14.740Z,71.54
2018-09-26T23:33:19.174Z,72.45
2018-09-26T23:36:23.834Z,71.86
2018-09-26T23:39:28.250Z,71.95
2018-09-26T23:42:32.718Z,71.99
2018-09-26T23:45:37.148Z,71.57
2018-09-26T23:48:41.583Z,72.47
2018-09-26T23:51:46.071Z,71.89
2018-09-26T23:54:50.546Z,72.46
2018-09-26T23:57:54.973Z,72.45
